Time;durP1;ratioP1;P1;durP2;ratioP2;P2;SDS_P1;SDS_P2;PMS_P1;PMS_P2;Temp;Humidity;BMP_temperature;BMP_pressure;BME280_temperature;BME280_humidity;BME280_pressure;Samples;Min_cycle;Max_cycle;Signal;HPM_P1;HPM_P2
2022/02/02 00:00:34;;;;;;;6.30;3.63;;;6.20;99.90;;;;;;5036072;28;20438;-70
2022/02/02 00:03:06;;;;;;;5.67;4.07;;;6.20;99.90;;;;;;5037840;28;20443;-70
2022/02/02 00:05:47;;;;;;;4.53;3.90;;;6.20;99.90;;;;;;5036526;28;20478;-71
2022/02/02 00:23:47;;;;;;;7.03;4.97;;;6.20;99.90;;;;;;5037433;28;20501;-70
2022/02/02 00:26:19;;;;;;;9.50;4.80;;;6.20;99.90;;;;;;5035657;28;20458;-70
2022/02/02 00:28:49;;;;;;;7.43;4.47;;;6.20;99.90;;;;;;5032979;28;20439;-69
2022/02/02 00:31:22;;;;;;;7.73;5.40;;;6.20;99.90;;;;;;5036576;28;20806;-70
2022/02/02 00:33:53;;;;;;;12.20;6.37;;;6.20;99.90;;;;;;5032862;28;20458;-69
2022/02/02 00:36:23;;;;;;;7.13;5.63;;;6.30;99.90;;;;;;5036043;28;20540;-69
2022/02/02 00:38:49;;;;;;;10.50;5.20;;;6.30;99.90;;;;;;5034328;28;20450;-69
2022/02/02 00:41:15;;;;;;;6.10;4.90;;;6.40;99.90;;;;;;5034693;28;20435;-70
2022/02/02 00:43:44;;;;;;;8.10;4.97;;;6.40;99.90;;;;;;5038516;28;20175;-69
2022/02/02 00:46:11;;;;;;;6.20;4.87;;;6.40;99.90;;;;;;5035027;28;20223;-69
2022/02/02 00:48:36;;;;;;;7.90;5.20;;;6.40;99.90;;;;;;5037931;28;20422;-70
2022/02/02 00:51:02;;;;;;;9.87;7.23;;;6.40;99.90;;;;;;5033365;28;20483;-71
2022/02/02 00:53:28;;;;;;;6.83;5.23;;;6.50;99.90;;;;;;5037407;28;20609;-70
2022/02/02 00:55:55;;;;;;;6.43;4.90;;;6.50;99.90;;;;;;5039415;28;20561;-69
2022/02/02 00:58:23;;;;;;;11.03;5.80;;;6.50;99.90;;;;;;5034414;28;20203;-69
2022/02/02 01:00:49;;;;;;;7.13;5.50;;;6.50;99.90;;;;;;5036251;28;20517;-69
2022/02/02 01:03:15;;;;;;;8.20;5.33;;;6.50;99.90;;;;;;5035364;28;20527;-69
2022/02/02 01:05:41;;;;;;;9.57;5.87;;;6.40;99.90;;;;;;5034930;28;20466;-69
2022/02/02 01:11:13;;;;;;;7.80;6.00;;;6.50;99.90;;;;;;5036071;28;20263;-68
2022/02/02 01:14:38;;;;;;;8.40;5.20;;;6.40;99.90;;;;;;5034571;28;20587;-69
2022/02/02 01:29:56;;;;;;;6.77;5.17;;;6.60;99.90;;;;;;5037707;28;20499;-70
2022/02/02 01:32:22;;;;;;;11.17;7.43;;;6.60;99.90;;;;;;5035874;28;20433;-70
2022/02/02 01:34:48;;;;;;;11.37;6.20;;;6.60;99.90;;;;;;5033980;28;20447;-70
2022/02/02 01:37:16;;;;;;;9.77;6.77;;;6.70;99.90;;;;;;5037223;28;20204;-69
2022/02/02 01:39:43;;;;;;;8.83;5.70;;;6.70;99.90;;;;;;5033640;28;20535;-70
2022/02/02 01:42:13;;;;;;;8.80;5.83;;;6.80;99.90;;;;;;5043135;28;20528;-70
2022/02/02 01:47:06;;;;;;;7.57;6.77;;;6.70;99.90;;;;;;5037781;28;20471;-70
2022/02/02 01:54:55;;;;;;;20.17;6.43;;;6.80;99.90;;;;;;5012584;28;20443;-70
2022/02/02 01:59:54;;;;;;;13.50;6.60;;;6.80;99.90;;;;;;5033565;28;21275;-69
2022/02/02 02:02:19;;;;;;;16.80;7.30;;;6.90;99.90;;;;;;5039655;28;20558;-70
2022/02/02 02:04:45;;;;;;;11.30;6.80;;;6.90;99.90;;;;;;5034999;28;20216;-69
2022/02/02 02:07:11;;;;;;;14.97;7.50;;;6.90;99.90;;;;;;5037996;28;20596;-70
2022/02/02 02:09:37;;;;;;;9.97;7.13;;;7.00;99.90;;;;;;5042949;28;20199;-70
2022/02/02 02:12:05;;;;;;;12.67;7.33;;;7.00;99.90;;;;;;5037147;28;20403;-69
2022/02/02 02:14:43;;;;;;;12.73;7.03;;;7.10;99.90;;;;;;5040791;28;20426;-70
2022/02/02 02:17:10;;;;;;;7.60;6.00;;;7.10;99.90;;;;;;5037173;28;21056;-70
2022/02/02 02:19:39;;;;;;;13.90;6.30;;;7.20;99.90;;;;;;5040387;28;20529;-71
2022/02/02 02:22:10;;;;;;;13.73;7.37;;;7.20;99.90;;;;;;5036067;28;20486;-70
2022/02/02 02:24:38;;;;;;;9.30;6.93;;;7.20;99.90;;;;;;5038078;28;20437;-70
2022/02/02 02:27:04;;;;;;;10.47;7.30;;;7.20;99.90;;;;;;5037907;28;20472;-69
2022/02/02 02:56:06;;;;;;;10.70;6.33;;;7.20;99.90;;;;;;5040802;28;21349;-68
2022/02/02 03:30:59;;;;;;;8.43;4.20;;;7.60;99.90;;;;;;5037266;28;20437;-69
2022/02/02 04:00:12;;;;;;;8.73;5.23;;;7.80;99.90;;;;;;5037014;28;20267;-68
2022/02/02 04:07:33;;;;;;;8.87;5.10;;;7.80;99.90;;;;;;5037573;28;20484;-68
2022/02/02 04:10:04;;;;;;;6.57;3.40;;;7.80;99.90;;;;;;5033646;28;20193;-69
2022/02/02 04:12:48;;;;;;;11.47;5.10;;;7.80;99.90;;;;;;5035468;28;20442;-69
2022/02/02 05:10:05;;;;;;;8.73;4.17;;;8.00;99.90;;;;;;5012220;28;20433;-68
2022/02/02 05:29:11;;;;;;;7.17;3.80;;;8.10;99.90;;;;;;5036830;28;21022;-68
2022/02/02 05:52:21;;;;;;;9.53;4.00;;;8.10;99.90;;;;;;5035308;28;20445;-69
2022/02/02 05:54:47;;;;;;;16.07;5.27;;;8.10;99.90;;;;;;5039327;28;20435;-69
2022/02/02 05:57:14;;;;;;;5.83;3.97;;;8.20;99.90;;;;;;5039368;28;20590;-68
2022/02/02 05:59:42;;;;;;;8.73;4.20;;;8.20;99.90;;;;;;5041838;28;20245;-68
2022/02/02 06:02:11;;;;;;;9.80;4.07;;;8.20;99.90;;;;;;5034853;28;20854;-68
2022/02/02 06:04:45;;;;;;;6.80;4.13;;;8.10;99.90;;;;;;5034809;28;20454;-68
2022/02/02 06:07:15;;;;;;;12.80;4.50;;;8.10;99.90;;;;;;5041509;28;20450;-69
2022/02/02 06:09:46;;;;;;;13.73;4.10;;;8.10;99.90;;;;;;5039711;28;20481;-69
2022/02/02 06:12:16;;;;;;;17.63;4.80;;;8.10;99.90;;;;;;5040031;28;20421;-69
2022/02/02 06:14:44;;;;;;;18.40;4.20;;;8.20;99.90;;;;;;5039056;28;20935;-69
2022/02/02 06:17:09;;;;;;;11.47;4.60;;;8.20;99.90;;;;;;5036238;28;20471;-70
2022/02/02 06:19:35;;;;;;;14.07;4.77;;;8.20;99.90;;;;;;5041405;28;20434;-68
2022/02/02 06:22:01;;;;;;;10.70;4.87;;;8.20;99.90;;;;;;5035434;28;20196;-67
2022/02/02 06:24:36;;;;;;;12.37;4.90;;;8.20;99.90;;;;;;5040596;28;20438;-68
2022/02/02 06:27:09;;;;;;;10.07;3.47;;;8.20;99.90;;;;;;5036161;28;20233;-70
2022/02/02 06:29:40;;;;;;;14.00;4.57;;;8.20;99.90;;;;;;5038968;28;21027;-69
2022/02/02 06:32:11;;;;;;;14.43;3.97;;;8.20;99.90;;;;;;5035963;28;20432;-72
2022/02/02 06:34:44;;;;;;;15.60;3.83;;;8.20;99.90;;;;;;5038801;28;20513;-69
2022/02/02 06:37:11;;;;;;;9.60;3.83;;;8.20;99.90;;;;;;5038165;28;20457;-69
2022/02/02 06:39:41;;;;;;;12.20;3.97;;;8.20;99.90;;;;;;5038111;28;20446;-69
2022/02/02 06:42:09;;;;;;;12.07;4.33;;;8.30;99.90;;;;;;5038759;28;21369;-69
2022/02/02 06:44:40;;;;;;;9.33;3.50;;;8.30;99.90;;;;;;5037076;28;20434;-71
2022/02/02 06:47:07;;;;;;;8.43;4.20;;;8.30;99.90;;;;;;5032569;28;21066;-70
2022/02/02 06:49:34;;;;;;;13.23;5.83;;;8.30;99.90;;;;;;5037234;28;20521;-70
2022/02/02 06:52:10;;;;;;;17.53;4.77;;;8.30;99.90;;;;;;5034082;28;20450;-69
2022/02/02 06:54:55;;;;;;;8.60;4.00;;;8.40;99.90;;;;;;5038723;28;21181;-69
2022/02/02 06:57:43;;;;;;;5.80;3.70;;;8.30;99.90;;;;;;5035109;28;20448;-69
2022/02/02 07:00:31;;;;;;;8.70;5.67;;;8.30;99.90;;;;;;5033130;28;20496;-70
2022/02/02 07:09:09;;;;;;;16.93;6.23;;;8.20;99.90;;;;;;5030691;28;20493;-69
2022/02/02 07:11:58;;;;;;;15.43;4.97;;;8.20;99.90;;;;;;5036017;28;20526;-70
2022/02/02 07:17:10;;;;;;;8.70;3.90;;;8.20;99.90;;;;;;5034329;28;20458;-70
2022/02/02 07:22:49;;;;;;;15.47;4.30;;;8.20;99.90;;;;;;5036447;28;20433;-69
2022/02/02 07:30:28;;;;;;;9.67;5.20;;;8.20;99.90;;;;;;5035502;28;20429;-69
2022/02/02 07:33:07;;;;;;;15.57;4.67;;;8.30;99.90;;;;;;5036324;28;20540;-69
2022/02/02 07:35:50;;;;;;;11.67;4.57;;;8.30;99.90;;;;;;5039219;28;21012;-69
2022/02/02 07:38:19;;;;;;;14.20;3.80;;;8.30;99.90;;;;;;5032463;28;20434;-69
2022/02/02 07:40:47;;;;;;;15.90;5.37;;;8.30;99.90;;;;;;5037573;28;20967;-69
2022/02/02 07:43:24;;;;;;;16.40;4.70;;;8.40;99.90;;;;;;5035290;28;20448;-70
2022/02/02 07:46:04;;;;;;;11.93;5.67;;;8.40;99.90;;;;;;5034245;28;20501;-70
2022/02/02 07:48:35;;;;;;;14.97;5.30;;;8.40;99.90;;;;;;5038003;28;20422;-71
2022/02/02 07:51:02;;;;;;;9.47;4.63;;;8.40;99.90;;;;;;5038208;28;20939;-69
2022/02/02 07:53:36;;;;;;;12.50;4.30;;;8.40;99.90;;;;;;5036436;28;20576;-69
2022/02/02 07:56:09;;;;;;;24.40;5.90;;;8.40;99.90;;;;;;5037312;28;20525;-69
2022/02/02 07:58:37;;;;;;;9.27;4.00;;;8.40;99.90;;;;;;5034390;28;20880;-70
2022/02/02 08:01:03;;;;;;;11.33;4.20;;;8.40;99.90;;;;;;5037862;28;20435;-70
2022/02/02 08:03:37;;;;;;;8.37;5.13;;;8.40;99.90;;;;;;5036963;28;20442;-70
2022/02/02 08:06:03;;;;;;;10.77;5.87;;;8.40;99.90;;;;;;5031954;28;20788;-69
2022/02/02 08:08:34;;;;;;;13.60;3.90;;;8.50;99.90;;;;;;5035112;28;20450;-70
2022/02/02 08:11:04;;;;;;;7.63;3.63;;;8.50;99.90;;;;;;5035522;28;20974;-69
2022/02/02 08:13:42;;;;;;;13.17;4.33;;;8.50;99.90;;;;;;5037963;28;20496;-69
2022/02/02 08:16:12;;;;;;;10.10;4.03;;;8.50;99.90;;;;;;5034629;28;20978;-68
2022/02/02 08:18:40;;;;;;;9.60;3.63;;;8.50;99.90;;;;;;5038011;28;20834;-70
2022/02/02 08:21:06;;;;;;;8.40;4.37;;;8.50;99.90;;;;;;5035339;28;20438;-69
2022/02/02 08:23:32;;;;;;;8.93;4.80;;;8.50;99.90;;;;;;5032384;28;20427;-69
2022/02/02 08:25:59;;;;;;;11.83;4.50;;;8.50;99.90;;;;;;5036738;28;20477;-68
2022/02/02 08:28:25;;;;;;;9.97;4.27;;;8.50;99.90;;;;;;5032687;28;20184;-70
2022/02/02 08:30:51;;;;;;;16.27;3.80;;;8.50;99.90;;;;;;5036484;28;20534;-69
2022/02/02 08:33:26;;;;;;;13.43;3.90;;;8.50;99.90;;;;;;5036346;28;20517;-69
2022/02/02 08:35:54;;;;;;;7.90;4.47;;;8.50;99.90;;;;;;5035410;28;20215;-68
2022/02/02 08:40:58;;;;;;;11.00;4.70;;;8.60;99.90;;;;;;5037927;28;20454;-68
2022/02/02 08:43:53;;;;;;;16.37;4.60;;;8.60;99.90;;;;;;5033588;28;20533;-69
2022/02/02 08:46:20;;;;;;;9.80;3.90;;;8.60;99.90;;;;;;5040974;28;22142;-69
2022/02/02 08:48:47;;;;;;;18.33;4.93;;;8.60;99.90;;;;;;5035586;28;20426;-72
2022/02/02 08:51:19;;;;;;;10.50;4.93;;;8.60;99.90;;;;;;5041910;28;20917;-68
2022/02/02 08:59:20;;;;;;;10.47;4.47;;;8.70;99.90;;;;;;5037466;28;20442;-68
2022/02/02 09:01:49;;;;;;;9.50;4.40;;;8.70;99.90;;;;;;5038315;28;21100;-68
2022/02/02 09:06:58;;;;;;;11.20;4.40;;;8.80;99.90;;;;;;5038353;28;20901;-67
2022/02/02 09:09:43;;;;;;;8.87;4.37;;;8.90;99.90;;;;;;5041555;28;20441;-70
2022/02/02 09:36:12;;;;;;;12.57;3.93;;;9.00;99.90;;;;;;5038222;28;20465;-69
2022/02/02 09:38:38;;;;;;;6.67;3.53;;;9.10;99.90;;;;;;5038694;28;20497;-70
2022/02/02 09:43:45;;;;;;;7.17;4.53;;;9.20;99.90;;;;;;5042992;28;20793;-68
2022/02/02 09:46:15;;;;;;;9.13;3.50;;;9.30;99.90;;;;;;5036355;28;20564;-70
2022/02/02 09:48:47;;;;;;;15.47;4.80;;;9.30;99.90;;;;;;5040318;28;20423;-69
2022/02/02 09:51:20;;;;;;;11.43;4.07;;;9.30;99.90;;;;;;5036880;28;20433;-69
2022/02/02 09:53:58;;;;;;;24.67;9.73;;;9.30;99.90;;;;;;5046126;28;21266;-70
2022/02/02 09:59:24;;;;;;;11.43;4.20;;;9.50;99.90;;;;;;5037514;28;20450;-69
2022/02/02 10:04:57;;;;;;;13.07;5.20;;;9.60;99.90;;;;;;5039628;28;20426;-69
2022/02/02 10:10:47;;;;;;;10.80;4.37;;;9.60;99.90;;;;;;5027118;28;20957;-70
2022/02/02 10:15:55;;;;;;;13.20;4.90;;;9.60;99.90;;;;;;5040786;28;20454;-69
2022/02/02 10:18:35;;;;;;;19.73;5.10;;;9.70;99.90;;;;;;5044007;28;20466;-70
2022/02/02 10:21:02;;;;;;;14.27;4.37;;;9.70;99.90;;;;;;5040575;28;20943;-70
2022/02/02 10:23:31;;;;;;;13.03;5.27;;;9.70;99.90;;;;;;5038007;28;20503;-69
2022/02/02 10:26:12;;;;;;;9.50;4.20;;;9.70;99.90;;;;;;5042594;28;20469;-69
2022/02/02 10:28:37;;;;;;;16.40;4.60;;;9.80;99.90;;;;;;5034963;28;20433;-67
2022/02/02 10:31:05;;;;;;;9.70;4.60;;;9.80;99.90;;;;;;5042585;28;20521;-69
2022/02/02 10:33:33;;;;;;;12.10;4.53;;;9.80;99.90;;;;;;5040296;28;20204;-69
2022/02/02 10:36:09;;;;;;;20.87;5.53;;;9.80;99.90;;;;;;5035222;28;20470;-69
2022/02/02 10:38:46;;;;;;;12.20;4.50;;;9.80;99.90;;;;;;5041179;28;20431;-69
2022/02/02 10:43:43;;;;;;;16.77;4.17;;;9.90;99.90;;;;;;5038138;28;20450;-69
2022/02/02 10:46:19;;;;;;;11.00;4.47;;;9.80;99.90;;;;;;5036823;28;20765;-68
2022/02/02 10:48:53;;;;;;;8.80;3.50;;;9.80;99.90;;;;;;5034348;28;20430;-68
2022/02/02 10:51:34;;;;;;;15.00;4.73;;;9.80;99.90;;;;;;5041187;28;20430;-68
2022/02/02 11:01:48;;;;;;;11.23;4.13;;;10.00;99.90;;;;;;5035734;28;20454;-68
2022/02/02 11:06:59;;;;;;;14.93;3.70;;;10.10;99.90;;;;;;5037877;28;20476;-69
2022/02/02 11:09:25;;;;;;;13.77;4.90;;;10.10;99.90;;;;;;5034581;28;20454;-68
2022/02/02 11:11:53;;;;;;;10.13;3.70;;;10.20;99.90;;;;;;5035554;28;20419;-68
2022/02/02 11:14:38;;;;;;;9.90;3.40;;;10.30;99.90;;;;;;5036314;28;20427;-69
2022/02/02 11:17:15;;;;;;;16.57;4.53;;;10.40;99.90;;;;;;5036824;28;20832;-69
2022/02/02 11:19:48;;;;;;;13.47;4.00;;;10.50;99.90;;;;;;5035897;28;20430;-67
2022/02/02 11:22:32;;;;;;;13.17;4.50;;;10.50;99.90;;;;;;5035442;28;20447;-68
2022/02/02 11:25:04;;;;;;;12.27;3.80;;;10.60;99.90;;;;;;5036598;28;21115;-72
2022/02/02 11:27:40;;;;;;;12.93;3.90;;;10.60;99.90;;;;;;5033738;28;21191;-68
2022/02/02 11:30:25;;;;;;;13.57;4.20;;;10.50;99.90;;;;;;5036426;28;20526;-68
2022/02/02 11:32:54;;;;;;;14.80;3.80;;;10.60;99.90;;;;;;5035585;28;20881;-68
2022/02/02 11:35:43;;;;;;;9.40;4.43;;;10.70;99.90;;;;;;5034969;28;20480;-68
2022/02/02 11:38:19;;;;;;;9.07;3.70;;;10.70;99.90;;;;;;5036125;28;20538;-68
2022/02/02 11:41:04;;;;;;;9.10;4.10;;;10.80;99.90;;;;;;5040923;28;20980;-68
2022/02/02 11:44:11;;;;;;;8.93;3.90;;;10.70;99.90;;;;;;5035770;28;20461;-67
2022/02/02 11:49:47;;;;;;;20.50;5.20;;;10.60;99.90;;;;;;5037514;28;20415;-68
2022/02/02 11:52:32;;;;;;;13.77;3.80;;;10.50;99.90;;;;;;5037140;28;20469;-69
2022/02/02 11:54:59;;;;;;;18.27;3.93;;;10.50;99.90;;;;;;5036439;28;20521;-68
2022/02/02 11:57:33;;;;;;;18.03;4.30;;;10.60;99.90;;;;;;5039811;28;20959;-69
2022/02/02 12:00:19;;;;;;;11.23;3.93;;;10.60;99.90;;;;;;5035624;28;20494;-69
2022/02/02 12:03:32;;;;;;;8.50;3.20;;;10.70;99.90;;;;;;5038305;28;21011;-69
2022/02/02 12:49:25;;;;;;;12.00;4.50;;;11.00;99.90;;;;;;5036798;28;21020;-68
2022/02/02 13:03:00;;;;;;;8.17;4.77;;;11.00;99.90;;;;;;5032704;28;20435;-69
2022/02/02 13:05:26;;;;;;;11.57;3.97;;;11.00;99.90;;;;;;5035087;28;20474;-68
2022/02/02 13:07:53;;;;;;;15.20;3.70;;;11.00;99.90;;;;;;5031419;28;20450;-68
2022/02/02 13:10:26;;;;;;;11.70;4.90;;;10.80;99.90;;;;;;5032262;28;20955;-69
2022/02/02 13:13:05;;;;;;;13.30;4.70;;;10.70;99.90;;;;;;5033230;28;20537;-69
2022/02/02 13:15:43;;;;;;;12.37;4.17;;;10.60;99.90;;;;;;5033987;28;20559;-68
2022/02/02 13:26:17;;;;;;;8.10;3.53;;;10.60;99.90;;;;;;5031821;28;20473;-69
2022/02/02 13:29:05;;;;;;;13.30;3.97;;;10.50;99.90;;;;;;5032642;28;20442;-70
2022/02/02 13:31:45;;;;;;;8.53;3.27;;;10.60;99.90;;;;;;5035580;28;20458;-69
2022/02/02 13:37:13;;;;;;;11.37;4.10;;;10.80;99.90;;;;;;5037010;28;20461;-69
2022/02/02 14:09:19;;;;;;;3.60;2.23;;;10.60;99.90;;;;;;5042542;28;20477;-67
2022/02/02 14:33:18;;;;;;;8.47;3.50;;;10.10;99.90;;;;;;5042263;28;21024;-68
2022/02/02 14:35:45;;;;;;;5.77;4.03;;;10.10;99.90;;;;;;5033959;28;20515;-68
2022/02/02 14:38:12;;;;;;;9.10;4.03;;;10.10;99.90;;;;;;5039667;28;20718;-69
2022/02/02 14:40:56;;;;;;;6.80;5.00;;;10.10;99.90;;;;;;5039770;28;21290;-69
2022/02/02 14:43:32;;;;;;;8.33;4.53;;;10.10;99.90;;;;;;5036800;28;20445;-69
2022/02/02 14:46:00;;;;;;;6.80;4.43;;;10.10;99.90;;;;;;5039940;28;20535;-68
2022/02/02 14:48:31;;;;;;;8.27;5.10;;;10.20;99.90;;;;;;5033430;28;20457;-69
2022/02/02 14:51:18;;;;;;;9.47;5.60;;;10.10;99.90;;;;;;5035057;28;20437;-69
2022/02/02 15:28:52;;;;;;;6.53;3.20;;;10.20;99.90;;;;;;5037585;28;20936;-68
2022/02/02 15:31:17;;;;;;;6.77;3.50;;;10.20;99.90;;;;;;5038845;28;20472;-68
2022/02/02 15:33:47;;;;;;;5.57;3.40;;;10.20;99.90;;;;;;5036698;28;20586;-67
2022/02/02 15:38:50;;;;;;;8.10;3.83;;;10.20;99.90;;;;;;5038038;28;20453;-68
2022/02/02 15:41:23;;;;;;;7.20;4.27;;;10.20;99.90;;;;;;5035291;28;20864;-69
2022/02/02 15:45:00;;;;;;;8.27;4.30;;;10.30;99.90;;;;;;5040098;28;21647;-69
2022/02/02 16:02:18;;;;;;;6.13;4.27;;;9.90;99.90;;;;;;5035702;28;20495;-68
2022/02/02 16:04:44;;;;;;;10.40;4.27;;;9.90;99.90;;;;;;5036296;28;20179;-66
2022/02/02 16:07:18;;;;;;;8.93;4.50;;;9.80;99.90;;;;;;5034120;28;20470;-66
2022/02/02 16:09:52;;;;;;;5.67;4.00;;;9.80;99.90;;;;;;5038275;28;20430;-67
2022/02/02 16:12:24;;;;;;;5.57;3.80;;;9.90;99.90;;;;;;5035709;28;20430;-67
2022/02/02 16:15:01;;;;;;;4.87;4.00;;;10.00;99.90;;;;;;5029909;28;20444;-67
2022/02/02 16:17:46;;;;;;;4.93;3.90;;;9.90;99.90;;;;;;5035276;28;20438;-67
2022/02/02 16:36:36;;;;;;;11.90;4.70;;;9.80;99.90;;;;;;5033668;28;20465;-68
2022/02/02 16:39:15;;;;;;;5.07;4.13;;;9.70;99.90;;;;;;5035645;28;20437;-67
2022/02/02 16:44:25;;;;;;;5.27;4.27;;;9.70;99.90;;;;;;5032587;28;21206;-68
2022/02/02 16:46:52;;;;;;;5.67;3.70;;;9.70;99.90;;;;;;5034342;28;20478;-67
2022/02/02 16:49:19;;;;;;;5.27;3.60;;;9.80;99.90;;;;;;5033253;28;20188;-67
2022/02/02 16:51:45;;;;;;;7.17;3.90;;;9.80;99.90;;;;;;5035154;28;20434;-67
2022/02/02 16:54:45;;;;;;;5.63;3.80;;;9.80;99.90;;;;;;5037312;28;20493;-67
2022/02/02 17:37:07;;;;;;;8.93;6.33;;;10.10;99.90;;;;;;5036585;28;20223;-68
2022/02/02 17:39:54;;;;;;;7.67;6.83;;;10.10;99.90;;;;;;5037902;28;20430;-68
2022/02/02 18:19:16;;;;;;;7.47;6.37;;;9.70;99.90;;;;;;5037674;28;20469;-68
2022/02/02 18:21:43;;;;;;;14.20;6.90;;;9.70;99.90;;;;;;5038670;28;20474;-68
2022/02/02 18:24:16;;;;;;;10.50;6.60;;;9.70;99.90;;;;;;5038713;28;20237;-67
2022/02/02 18:26:49;;;;;;;7.70;5.77;;;9.70;99.90;;;;;;5038602;28;20466;-68
2022/02/02 18:37:13;;;;;;;6.70;6.00;;;9.70;99.90;;;;;;5038366;28;20593;-68
2022/02/02 18:45:30;;;;;;;10.10;6.83;;;9.80;99.90;;;;;;5039140;28;20526;-68
2022/02/02 18:56:05;;;;;;;10.17;6.50;;;9.80;99.90;;;;;;5035584;28;20466;-68
2022/02/02 18:58:45;;;;;;;7.80;7.00;;;9.80;99.90;;;;;;5038315;28;22890;-68
2022/02/02 19:52:45;;;;;;;13.60;8.90;;;9.80;99.90;;;;;;5037082;28;20947;-69
2022/02/02 19:55:23;;;;;;;10.87;8.23;;;9.80;99.90;;;;;;5040325;28;20990;-69
2022/02/02 20:03:46;;;;;;;11.53;9.73;;;9.80;99.90;;;;;;5031334;28;20443;-69
2022/02/02 20:06:04;;;;;;;12.93;10.10;;;9.80;99.90;;;;;;5032383;28;20478;-68
2022/02/02 20:09:08;;;;;;;13.90;9.90;;;9.70;99.90;;;;;;5035453;28;20517;-69
2022/02/02 20:11:39;;;;;;;17.33;11.60;;;9.70;99.90;;;;;;5031055;28;20431;-68
2022/02/02 20:14:05;;;;;;;12.53;10.03;;;9.70;99.90;;;;;;5030037;28;20988;-73
2022/02/02 20:16:31;;;;;;;14.60;10.50;;;9.60;99.90;;;;;;5036501;28;20458;-69
2022/02/02 20:18:59;;;;;;;12.20;10.90;;;9.60;99.90;;;;;;5035341;28;20473;-70
2022/02/02 20:21:30;;;;;;;13.00;11.60;;;9.60;99.90;;;;;;5036451;28;20426;-69
2022/02/02 20:23:57;;;;;;;15.00;10.57;;;9.60;99.90;;;;;;5031723;28;20497;-69
2022/02/02 20:26:25;;;;;;;11.57;9.67;;;9.50;99.90;;;;;;5035078;28;20505;-70
2022/02/02 20:28:50;;;;;;;16.00;11.13;;;9.50;99.90;;;;;;5037701;28;20426;-69
2022/02/02 20:31:16;;;;;;;15.60;11.43;;;9.60;99.90;;;;;;5035345;28;20430;-69
2022/02/02 20:33:42;;;;;;;16.80;10.43;;;9.60;99.90;;;;;;5041790;28;20699;-69
2022/02/02 20:36:09;;;;;;;15.20;12.53;;;9.60;99.90;;;;;;5034251;28;20213;-69
2022/02/02 20:38:36;;;;;;;17.43;11.63;;;9.60;99.90;;;;;;5035718;28;20184;-69
2022/02/02 20:41:02;;;;;;;13.10;10.50;;;9.70;99.90;;;;;;5038600;28;20444;-69
2022/02/02 20:43:47;;;;;;;16.97;11.70;;;9.70;99.90;;;;;;5034603;28;20438;-70
2022/02/02 21:00:23;;;;;;;13.07;10.33;;;9.80;99.90;;;;;;5020856;28;21021;-70
2022/02/02 21:05:54;;;;;;;13.57;10.03;;;9.80;99.90;;;;;;5039000;28;20861;-68
2022/02/02 21:11:14;;;;;;;14.17;10.90;;;9.80;99.90;;;;;;5044434;28;20434;-68
2022/02/02 21:13:50;;;;;;;13.87;9.53;;;9.80;99.90;;;;;;5035729;28;20431;-68
2022/02/02 21:16:18;;;;;;;12.20;10.30;;;9.80;99.90;;;;;;5035588;28;20454;-68
2022/02/02 21:18:46;;;;;;;17.23;11.80;;;9.90;99.90;;;;;;5037519;28;20955;-69
2022/02/02 21:21:24;;;;;;;11.30;10.10;;;9.80;99.90;;;;;;5008720;28;20435;-70
2022/02/02 21:29:00;;;;;;;12.60;9.30;;;9.90;99.90;;;;;;5040067;28;20422;-72
2022/02/02 21:31:26;;;;;;;13.43;9.37;;;9.90;99.90;;;;;;5038263;28;20215;-72
2022/02/02 21:33:51;;;;;;;11.40;8.80;;;9.90;99.90;;;;;;5037139;28;20572;-71
2022/02/02 21:36:18;;;;;;;15.17;9.93;;;9.90;99.90;;;;;;5037727;28;20302;-71
2022/02/02 21:38:57;;;;;;;11.97;9.27;;;9.90;99.90;;;;;;5037408;28;20180;-71
2022/02/02 21:41:30;;;;;;;9.70;8.53;;;9.90;99.90;;;;;;5040529;28;20457;-71
2022/02/02 21:43:56;;;;;;;12.87;9.50;;;10.00;99.90;;;;;;5039775;28;20457;-71
2022/02/02 21:46:24;;;;;;;11.90;9.40;;;9.90;99.90;;;;;;5033388;28;20478;-71
2022/02/02 21:48:50;;;;;;;12.13;9.50;;;10.00;99.90;;;;;;5045709;28;20425;-71
2022/02/02 21:51:26;;;;;;;11.60;9.30;;;9.80;99.90;;;;;;5055921;28;20517;-71
2022/02/02 21:53:51;;;;;;;11.57;9.83;;;10.00;99.90;;;;;;5042287;28;20426;-71
2022/02/02 21:56:17;;;;;;;12.00;8.77;;;9.90;99.90;;;;;;5043528;28;20956;-71
2022/02/02 21:58:43;;;;;;;12.10;8.83;;;9.90;99.90;;;;;;5039840;28;20192;-71
2022/02/02 22:01:08;;;;;;;9.80;8.27;;;10.00;99.90;;;;;;5043411;28;20181;-71
2022/02/02 22:03:34;;;;;;;10.40;7.73;;;9.90;99.90;;;;;;5037968;28;20196;-71
2022/02/02 22:06:00;;;;;;;14.60;10.53;;;10.00;99.90;;;;;;5043796;28;20728;-70
2022/02/02 22:08:25;;;;;;;10.50;9.00;;;10.00;99.90;;;;;;5040934;28;20225;-70
2022/02/02 22:10:51;;;;;;;15.10;9.60;;;10.00;99.90;;;;;;5042114;28;20184;-70
2022/02/02 22:13:18;;;;;;;13.13;9.20;;;10.00;99.90;;;;;;5042325;28;20180;-71
2022/02/02 22:15:52;;;;;;;10.40;9.30;;;10.00;99.90;;;;;;5039255;28;20250;-71
2022/02/02 22:18:19;;;;;;;12.00;9.13;;;9.90;99.90;;;;;;5042378;28;20493;-71
2022/02/02 22:20:45;;;;;;;13.87;9.67;;;9.90;99.90;;;;;;5041289;28;20422;-71
2022/02/02 22:23:10;;;;;;;13.77;9.97;;;9.90;99.90;;;;;;5042855;28;20468;-71
2022/02/02 22:25:36;;;;;;;14.47;10.00;;;9.80;99.90;;;;;;5042300;28;20689;-72
2022/02/02 22:28:02;;;;;;;11.50;9.10;;;9.80;99.90;;;;;;5043834;28;20180;-69
2022/02/02 22:30:27;;;;;;;13.00;9.57;;;9.80;99.90;;;;;;5041677;28;20196;-72
2022/02/02 22:32:54;;;;;;;13.83;9.80;;;9.80;99.90;;;;;;5034988;28;20210;-71
2022/02/02 22:35:19;;;;;;;12.00;10.67;;;9.80;99.90;;;;;;5040611;28;20233;-71
2022/02/02 22:37:45;;;;;;;12.33;9.23;;;9.80;99.90;;;;;;5043002;28;20437;-71
2022/02/02 22:40:16;;;;;;;10.70;8.80;;;9.70;99.90;;;;;;5036636;28;20564;-71
2022/02/02 22:42:43;;;;;;;14.40;9.67;;;9.70;99.90;;;;;;5044156;28;20230;-71
2022/02/02 22:45:09;;;;;;;11.43;9.00;;;9.70;99.90;;;;;;5037955;28;20438;-71
2022/02/02 22:47:36;;;;;;;13.37;10.30;;;9.70;99.90;;;;;;5044748;28;20434;-71
2022/02/02 22:50:04;;;;;;;14.30;9.47;;;9.70;99.90;;;;;;5041430;28;20528;-71
2022/02/02 22:52:30;;;;;;;11.70;8.40;;;9.70;99.90;;;;;;5040847;28;20442;-70
2022/02/02 22:54:56;;;;;;;10.50;8.10;;;9.80;99.90;;;;;;5040212;28;20795;-70
2022/02/02 22:57:24;;;;;;;13.33;8.47;;;9.80;99.90;;;;;;5036393;28;20451;-71
2022/02/02 22:59:51;;;;;;;12.43;8.53;;;9.70;99.90;;;;;;5040519;28;20184;-72
2022/02/02 23:05:24;;;;;;;9.50;8.43;;;9.80;99.90;;;;;;4999391;28;20957;-72
2022/02/02 23:07:50;;;;;;;11.23;8.90;;;9.60;99.90;;;;;;5035919;28;20446;-71
2022/02/02 23:10:15;;;;;;;9.67;7.70;;;9.70;99.90;;;;;;5039120;28;20438;-71
2022/02/02 23:12:41;;;;;;;8.47;7.57;;;9.70;99.90;;;;;;5040759;28;20442;-71
2022/02/02 23:15:11;;;;;;;8.87;7.90;;;9.60;99.90;;;;;;5042543;28;20792;-71
2022/02/02 23:17:38;;;;;;;8.57;7.17;;;9.70;99.90;;;;;;5040701;28;20196;-70
2022/02/02 23:20:04;;;;;;;11.90;8.90;;;9.70;99.90;;;;;;5041493;28;20944;-71
2022/02/02 23:22:32;;;;;;;8.17;7.30;;;9.60;99.90;;;;;;5035817;28;20442;-71
2022/02/02 23:25:04;;;;;;;10.40;8.20;;;9.70;99.90;;;;;;5044472;28;20467;-70
2022/02/02 23:27:31;;;;;;;9.57;7.30;;;9.70;99.90;;;;;;5041037;28;21123;-72
2022/02/02 23:29:59;;;;;;;9.70;6.97;;;9.60;99.90;;;;;;5034058;28;20446;-71
2022/02/02 23:32:26;;;;;;;8.30;7.37;;;9.60;99.90;;;;;;5040253;28;20518;-71
2022/02/02 23:34:52;;;;;;;7.63;6.43;;;9.50;99.90;;;;;;5038633;28;20431;-71
2022/02/02 23:37:18;;;;;;;10.03;7.70;;;9.60;99.90;;;;;;5042689;28;20470;-71
2022/02/02 23:39:43;;;;;;;8.23;6.67;;;9.60;99.90;;;;;;5041630;28;20876;-71
2022/02/02 23:42:20;;;;;;;10.70;7.10;;;9.60;99.90;;;;;;5038127;28;20192;-70
2022/02/02 23:44:50;;;;;;;7.90;6.50;;;9.60;99.90;;;;;;5041452;28;20597;-71
2022/02/02 23:47:22;;;;;;;7.93;7.10;;;9.50;99.90;;;;;;5037524;28;21026;-71
2022/02/02 23:49:55;;;;;;;10.73;8.23;;;9.50;99.90;;;;;;5040331;28;20462;-71
2022/02/02 23:52:39;;;;;;;9.33;7.23;;;9.50;99.90;;;;;;5038502;28;20453;-70
2022/02/02 23:55:07;;;;;;;10.77;7.70;;;9.50;99.90;;;;;;5036983;28;20422;-71
